Time;durP1;ratioP1;P1;durP2;ratioP2;P2;SDS_P1;SDS_P2;PMS_P1;PMS_P2;Temp;Humidity;BMP_temperature;BMP_pressure;BME280_temperature;BME280_humidity;BME280_pressure;Samples;Min_cycle;Max_cycle;Signal;HPM_P1;HPM_P2
2022/03/07 00:00:39;;;;;;;10.13;7.20;;;-0.40;99.90;;;;;;4996804;28;20209;-45
2022/03/07 00:03:06;;;;;;;13.80;7.17;;;-0.40;99.90;;;;;;5017742;28;20412;-49
2022/03/07 00:05:34;;;;;;;13.03;7.30;;;-0.40;99.90;;;;;;4992447;28;20680;-45
2022/03/07 00:08:02;;;;;;;12.50;7.00;;;-0.50;99.90;;;;;;5014777;28;20221;-44
2022/03/07 00:10:29;;;;;;;9.03;5.80;;;-0.40;99.90;;;;;;5009799;28;20230;-45
2022/03/07 00:12:55;;;;;;;8.93;6.20;;;-0.30;99.90;;;;;;5005659;28;20234;-46
2022/03/07 00:15:22;;;;;;;14.40;7.10;;;-0.30;99.90;;;;;;4994412;28;20540;-45
2022/03/07 00:17:49;;;;;;;10.90;7.13;;;-0.20;99.90;;;;;;5023116;28;20210;-45
2022/03/07 00:20:16;;;;;;;9.43;6.77;;;-0.20;99.90;;;;;;5004972;28;20217;-44
2022/03/07 00:22:43;;;;;;;10.77;6.50;;;-0.30;99.90;;;;;;4999576;28;20298;-45
2022/03/07 00:25:11;;;;;;;13.57;7.27;;;-0.30;99.90;;;;;;5004547;28;20244;-44
2022/03/07 00:27:38;;;;;;;11.40;7.10;;;-0.40;99.90;;;;;;5001464;28;20257;-46
2022/03/07 00:30:06;;;;;;;9.87;6.40;;;-0.40;99.90;;;;;;5000940;28;20843;-44
2022/03/07 00:32:33;;;;;;;11.40;6.93;;;-0.20;99.90;;;;;;5007663;28;20467;-45
2022/03/07 00:35:00;;;;;;;11.33;7.20;;;-0.50;99.90;;;;;;5019081;28;21866;-45
2022/03/07 00:37:27;;;;;;;11.83;6.90;;;-0.50;99.90;;;;;;5004752;28;20329;-45
2022/03/07 00:39:55;;;;;;;10.27;6.97;;;-0.60;99.90;;;;;;5001963;28;20407;-44
2022/03/07 00:42:23;;;;;;;13.67;7.47;;;-0.60;99.90;;;;;;5000702;28;20225;-45
2022/03/07 00:44:50;;;;;;;10.43;7.03;;;-0.60;99.90;;;;;;5010117;28;20211;-44
2022/03/07 00:47:17;;;;;;;9.73;7.17;;;-0.60;99.90;;;;;;4999777;28;20217;-44
2022/03/07 00:49:44;;;;;;;10.47;7.57;;;-0.60;99.90;;;;;;5019012;28;20499;-45
2022/03/07 00:52:10;;;;;;;9.97;7.20;;;-0.60;99.90;;;;;;4996758;28;20233;-44
2022/03/07 00:54:38;;;;;;;13.27;7.37;;;-0.60;99.90;;;;;;4987212;28;20450;-45
2022/03/07 00:57:05;;;;;;;13.47;7.27;;;-0.50;99.90;;;;;;5021620;28;20435;-44
2022/03/07 00:59:33;;;;;;;10.47;7.67;;;-0.50;99.90;;;;;;5011277;28;20551;-45
2022/03/07 01:02:00;;;;;;;12.47;7.80;;;-0.60;99.90;;;;;;4996976;28;20249;-44
2022/03/07 01:04:27;;;;;;;10.57;7.07;;;-0.60;99.90;;;;;;5012583;28;20494;-46
2022/03/07 01:06:53;;;;;;;11.60;7.40;;;-0.60;99.90;;;;;;5012548;28;20233;-44
2022/03/07 01:09:20;;;;;;;13.77;8.27;;;-0.60;99.90;;;;;;4985975;28;20704;-45
2022/03/07 01:11:47;;;;;;;9.87;7.30;;;-0.60;99.90;;;;;;5020684;28;20522;-44
2022/03/07 01:14:14;;;;;;;14.17;8.03;;;-0.60;99.90;;;;;;5016828;28;20317;-47
2022/03/07 01:16:42;;;;;;;14.50;8.57;;;-0.60;99.90;;;;;;4997993;28;20320;-45
2022/03/07 01:19:09;;;;;;;11.80;8.20;;;-0.60;99.90;;;;;;5008361;28;20588;-48
2022/03/07 01:21:38;;;;;;;12.90;8.37;;;-0.60;99.90;;;;;;5016659;28;20285;-42
2022/03/07 01:24:05;;;;;;;14.70;7.13;;;-0.60;99.90;;;;;;5001812;28;20207;-47
2022/03/07 01:26:32;;;;;;;11.80;8.03;;;-0.70;99.90;;;;;;5004670;28;20464;-43
2022/03/07 01:29:00;;;;;;;13.13;8.10;;;-0.70;99.90;;;;;;5025291;28;20206;-49
2022/03/07 01:31:27;;;;;;;13.50;8.63;;;-0.80;99.90;;;;;;5004495;28;21191;-44
2022/03/07 01:33:55;;;;;;;11.23;8.23;;;-0.90;99.90;;;;;;5011984;28;20336;-44
2022/03/07 01:36:22;;;;;;;13.27;8.17;;;-0.90;99.90;;;;;;5009532;28;20393;-45
2022/03/07 01:38:49;;;;;;;12.27;8.00;;;-0.90;99.90;;;;;;5005728;28;20417;-49
2022/03/07 01:41:17;;;;;;;11.13;7.57;;;-0.80;99.90;;;;;;4988172;28;20228;-44
2022/03/07 01:43:43;;;;;;;12.20;7.97;;;-0.70;99.90;;;;;;5021227;28;20276;-44
2022/03/07 01:46:11;;;;;;;12.43;8.07;;;-0.80;99.90;;;;;;5007720;28;20292;-45
2022/03/07 01:48:38;;;;;;;12.03;8.50;;;-0.80;99.90;;;;;;4999643;28;20456;-44
2022/03/07 01:51:10;;;;;;;9.93;7.53;;;-0.80;99.90;;;;;;5002997;28;20703;-44
2022/03/07 01:53:38;;;;;;;11.97;7.73;;;-0.70;99.90;;;;;;5004764;28;20235;-44
2022/03/07 01:56:06;;;;;;;11.20;8.00;;;-0.70;99.90;;;;;;4989455;28;20685;-44
2022/03/07 01:58:33;;;;;;;10.23;7.50;;;-0.90;99.90;;;;;;5018245;28;20281;-44
2022/03/07 02:01:00;;;;;;;13.03;7.53;;;-0.90;99.90;;;;;;4996218;28;20211;-47
2022/03/07 02:03:27;;;;;;;12.27;7.70;;;-0.90;99.90;;;;;;5013944;28;20586;-45
2022/03/07 02:05:55;;;;;;;12.60;8.17;;;-0.90;99.90;;;;;;4985411;28;20294;-46
2022/03/07 02:08:24;;;;;;;11.30;7.80;;;-1.00;99.90;;;;;;5016514;28;20487;-44
2022/03/07 02:10:50;;;;;;;16.33;8.13;;;-1.10;99.90;;;;;;5001745;28;20209;-45
2022/03/07 02:13:19;;;;;;;14.73;7.80;;;-1.10;99.90;;;;;;4999966;28;20263;-45
2022/03/07 02:15:53;;;;;;;12.60;7.70;;;-1.00;99.90;;;;;;5015872;28;20277;-46
2022/03/07 02:18:21;;;;;;;11.93;7.47;;;-1.00;99.90;;;;;;5018377;28;20565;-46
2022/03/07 02:20:50;;;;;;;12.17;8.07;;;-0.90;99.90;;;;;;5004897;28;20217;-46
2022/03/07 02:23:18;;;;;;;15.77;7.97;;;-0.90;99.90;;;;;;5016212;28;20629;-44
2022/03/07 02:25:45;;;;;;;12.37;7.70;;;-0.90;99.90;;;;;;5009112;28;20409;-46
2022/03/07 02:28:12;;;;;;;11.30;8.03;;;-1.00;99.90;;;;;;4998548;28;20292;-44
2022/03/07 02:30:39;;;;;;;12.80;8.17;;;-0.90;99.90;;;;;;5017676;28;20593;-44
2022/03/07 02:33:05;;;;;;;12.17;8.17;;;-1.00;99.90;;;;;;5015419;28;20320;-44
2022/03/07 02:35:32;;;;;;;15.23;8.13;;;-1.10;99.90;;;;;;5006746;28;20327;-44
2022/03/07 02:37:59;;;;;;;14.03;8.33;;;-1.00;99.90;;;;;;5010110;28;20210;-45
2022/03/07 02:40:27;;;;;;;11.73;8.33;;;-1.00;99.90;;;;;;5012325;28;20289;-44
2022/03/07 02:42:54;;;;;;;17.07;7.90;;;-1.10;99.90;;;;;;4997487;28;20257;-46
2022/03/07 02:45:21;;;;;;;13.13;8.30;;;-1.00;99.90;;;;;;5002643;28;20236;-45
2022/03/07 02:47:48;;;;;;;10.13;7.90;;;-1.10;99.90;;;;;;5004076;28;20217;-46
2022/03/07 02:50:15;;;;;;;16.57;8.77;;;-1.20;99.90;;;;;;5011576;28;20435;-44
2022/03/07 02:52:41;;;;;;;11.70;8.53;;;-1.20;99.90;;;;;;5006318;28;20244;-45
2022/03/07 02:55:09;;;;;;;14.50;7.80;;;-1.20;99.90;;;;;;5021225;28;20222;-44
2022/03/07 02:57:38;;;;;;;14.93;8.60;;;-1.20;99.90;;;;;;5004436;28;20273;-45
2022/03/07 03:00:06;;;;;;;13.97;8.30;;;-1.00;99.90;;;;;;4989066;28;20329;-45
2022/03/07 03:02:33;;;;;;;15.67;8.20;;;-0.90;99.90;;;;;;5021016;28;20232;-45
2022/03/07 03:05:00;;;;;;;16.80;8.60;;;-0.90;99.90;;;;;;5002659;28;20273;-44
2022/03/07 03:07:27;;;;;;;15.20;8.33;;;-0.90;99.90;;;;;;5003239;28;20241;-44
2022/03/07 03:09:55;;;;;;;16.50;8.37;;;-1.00;99.90;;;;;;5007609;28;20395;-45
2022/03/07 03:12:24;;;;;;;14.50;8.13;;;-1.00;99.90;;;;;;5007336;28;20474;-43
2022/03/07 03:14:52;;;;;;;14.07;8.77;;;-1.00;99.90;;;;;;4998127;28;20469;-45
2022/03/07 03:17:19;;;;;;;12.60;7.80;;;-1.00;99.90;;;;;;4994203;28;20210;-45
2022/03/07 03:19:46;;;;;;;15.70;7.90;;;-0.90;99.90;;;;;;5016091;28;20446;-45
2022/03/07 03:22:13;;;;;;;11.37;7.27;;;-0.90;99.90;;;;;;5004669;28;20708;-45
2022/03/07 03:24:40;;;;;;;13.23;7.87;;;-0.80;99.90;;;;;;4995925;28;20212;-44
2022/03/07 03:27:08;;;;;;;13.67;8.17;;;-0.80;99.90;;;;;;5020354;28;20213;-44
2022/03/07 03:29:34;;;;;;;13.60;8.27;;;-0.60;99.90;;;;;;4995785;28;21325;-44
2022/03/07 03:32:03;;;;;;;21.60;9.40;;;-0.60;99.90;;;;;;5001059;28;20301;-46
2022/03/07 03:34:33;;;;;;;16.73;9.60;;;-0.60;99.90;;;;;;5016564;28;20222;-44
2022/03/07 03:37:00;;;;;;;19.73;9.37;;;-0.70;99.90;;;;;;5019671;28;20205;-45
2022/03/07 03:39:27;;;;;;;17.80;10.10;;;-0.70;99.90;;;;;;5009199;28;20533;-45
2022/03/07 03:41:54;;;;;;;17.13;9.97;;;-0.60;99.90;;;;;;5017836;28;20446;-45
2022/03/07 03:44:21;;;;;;;18.77;9.40;;;-0.50;99.90;;;;;;4997289;28;20198;-44
2022/03/07 03:46:47;;;;;;;18.43;9.97;;;-0.40;99.90;;;;;;5000993;28;20443;-44
2022/03/07 03:49:16;;;;;;;21.13;10.93;;;-0.40;99.90;;;;;;5023698;28;20211;-46
2022/03/07 03:51:43;;;;;;;19.60;9.53;;;-0.50;99.90;;;;;;4991921;28;20276;-45
2022/03/07 03:54:10;;;;;;;32.93;10.97;;;-0.50;99.90;;;;;;5008128;28;20231;-45
2022/03/07 03:56:37;;;;;;;62.37;11.27;;;-0.40;99.90;;;;;;5010548;28;20463;-44
2022/03/07 03:59:04;;;;;;;88.30;13.17;;;-0.40;99.90;;;;;;4996419;28;20217;-45
2022/03/07 04:01:31;;;;;;;60.57;11.63;;;-0.40;99.90;;;;;;4985406;28;20461;-45
2022/03/07 04:03:57;;;;;;;67.87;13.33;;;-0.30;99.90;;;;;;5017527;28;20226;-45
2022/03/07 04:06:26;;;;;;;82.90;12.67;;;-0.20;99.90;;;;;;5019244;28;20246;-46
2022/03/07 04:08:53;;;;;;;67.40;13.33;;;-0.20;99.90;;;;;;5010997;28;20300;-45
2022/03/07 04:11:20;;;;;;;98.47;13.97;;;-0.10;99.90;;;;;;4989267;28;20556;-48
2022/03/07 04:13:47;;;;;;;81.47;13.90;;;0.00;99.90;;;;;;5007649;28;20355;-46
2022/03/07 04:16:15;;;;;;;110.57;15.90;;;0.00;99.90;;;;;;5008315;28;20401;-49
2022/03/07 04:18:42;;;;;;;135.43;15.00;;;0.10;99.90;;;;;;5006942;28;20229;-48
2022/03/07 04:21:09;;;;;;;123.77;14.47;;;0.10;99.90;;;;;;5017268;28;20217;-48
2022/03/07 04:23:37;;;;;;;115.97;15.20;;;0.10;99.90;;;;;;4993575;28;20537;-43
2022/03/07 04:26:04;;;;;;;91.80;13.97;;;0.10;99.90;;;;;;5003274;28;20473;-48
2022/03/07 04:28:31;;;;;;;113.47;12.77;;;0.20;99.90;;;;;;5012489;28;20503;-44
2022/03/07 04:30:57;;;;;;;77.37;13.90;;;0.20;99.90;;;;;;5007717;28;20208;-46
2022/03/07 04:33:24;;;;;;;126.27;14.70;;;0.30;99.90;;;;;;4998971;28;20746;-44
2022/03/07 04:35:51;;;;;;;152.23;14.30;;;0.30;99.90;;;;;;5001225;28;20567;-46
2022/03/07 04:38:24;;;;;;;113.77;13.33;;;0.30;99.90;;;;;;4996624;28;20248;-45
2022/03/07 04:40:53;;;;;;;90.33;13.47;;;0.30;99.90;;;;;;5021742;28;20206;-46
2022/03/07 04:43:20;;;;;;;103.67;14.37;;;0.40;99.90;;;;;;5003246;28;20883;-44
2022/03/07 04:45:47;;;;;;;121.93;12.33;;;0.40;99.90;;;;;;5009437;28;20212;-46
2022/03/07 04:48:14;;;;;;;116.07;12.03;;;0.40;99.90;;;;;;4994322;28;20218;-45
2022/03/07 04:50:41;;;;;;;98.20;10.67;;;0.40;99.90;;;;;;5017881;28;20195;-44
2022/03/07 04:53:08;;;;;;;115.37;10.83;;;0.50;99.90;;;;;;4981722;28;20468;-46
2022/03/07 04:55:35;;;;;;;38.33;8.27;;;0.40;99.90;;;;;;5019916;28;20242;-46
2022/03/07 04:58:03;;;;;;;58.60;9.37;;;0.30;99.90;;;;;;5006708;28;20934;-46
2022/03/07 05:00:31;;;;;;;52.13;9.03;;;0.20;99.90;;;;;;4999073;28;20317;-46
2022/03/07 05:02:57;;;;;;;58.10;8.07;;;0.20;99.90;;;;;;4995176;28;20543;-46
2022/03/07 05:05:24;;;;;;;47.73;7.97;;;0.20;99.90;;;;;;5010070;28;20227;-46
2022/03/07 05:07:51;;;;;;;45.97;9.07;;;0.10;99.90;;;;;;5002214;28;20402;-44
2022/03/07 05:10:19;;;;;;;40.40;8.63;;;0.20;99.90;;;;;;5004003;28;20222;-45
2022/03/07 05:12:46;;;;;;;21.93;8.57;;;0.20;99.90;;;;;;4999765;28;20411;-44
2022/03/07 05:15:15;;;;;;;30.27;7.73;;;0.20;99.90;;;;;;4998273;28;20484;-47
2022/03/07 05:17:43;;;;;;;44.00;8.13;;;0.20;99.90;;;;;;5002583;28;20218;-49
2022/03/07 05:20:11;;;;;;;46.07;8.60;;;0.50;99.90;;;;;;4989256;28;23022;-46
2022/03/07 05:22:38;;;;;;;42.13;8.93;;;0.20;99.90;;;;;;5011370;28;20232;-50
2022/03/07 05:25:06;;;;;;;33.23;8.30;;;0.10;99.90;;;;;;5001701;28;20428;-46
2022/03/07 05:27:32;;;;;;;65.13;8.27;;;0.10;99.90;;;;;;5001064;28;20449;-45
2022/03/07 05:29:59;;;;;;;56.17;8.67;;;0.00;99.90;;;;;;5003897;28;20382;-45
2022/03/07 05:32:28;;;;;;;52.17;8.03;;;0.00;99.90;;;;;;5008816;28;20302;-43
2022/03/07 05:34:54;;;;;;;53.27;8.13;;;0.00;99.90;;;;;;4999182;28;20297;-50
2022/03/07 05:37:21;;;;;;;39.57;7.03;;;0.00;99.90;;;;;;4999215;28;20540;-43
2022/03/07 05:39:48;;;;;;;16.83;6.50;;;0.00;99.90;;;;;;5021159;28;20279;-49
2022/03/07 05:42:15;;;;;;;16.40;7.53;;;-0.10;99.90;;;;;;5001390;28;20306;-47
2022/03/07 05:44:42;;;;;;;23.43;7.50;;;-0.20;99.90;;;;;;4993077;28;20207;-48
2022/03/07 05:47:09;;;;;;;30.93;8.00;;;-0.20;99.90;;;;;;5003708;28;20492;-49
2022/03/07 05:49:37;;;;;;;30.50;7.10;;;-0.10;99.90;;;;;;5004370;28;20531;-44
2022/03/07 05:52:04;;;;;;;27.23;7.73;;;-0.10;99.90;;;;;;4984241;28;20545;-49
2022/03/07 05:54:31;;;;;;;30.93;7.93;;;-0.10;99.90;;;;;;5008483;28;20771;-45
2022/03/07 05:56:58;;;;;;;26.77;7.87;;;-0.10;99.90;;;;;;5019943;28;20467;-46
2022/03/07 05:59:25;;;;;;;16.37;8.03;;;-0.10;99.90;;;;;;4982100;28;20431;-44
2022/03/07 06:01:52;;;;;;;25.17;7.33;;;-0.10;99.90;;;;;;5008209;28;20256;-45
2022/03/07 06:04:19;;;;;;;47.07;8.43;;;-0.10;99.90;;;;;;5015339;28;20213;-47
2022/03/07 06:06:47;;;;;;;20.63;7.03;;;-0.10;99.90;;;;;;4995774;28;20540;-45
2022/03/07 06:09:14;;;;;;;33.70;6.97;;;-0.10;99.90;;;;;;4994000;28;20317;-45
2022/03/07 06:11:41;;;;;;;42.83;7.47;;;-0.20;99.90;;;;;;5006799;28;20227;-44
2022/03/07 06:14:08;;;;;;;35.73;7.47;;;-0.20;99.90;;;;;;5010113;28;20567;-45
2022/03/07 06:16:35;;;;;;;21.50;7.37;;;-0.10;99.90;;;;;;4984406;28;20930;-44
2022/03/07 06:19:02;;;;;;;65.90;8.33;;;-0.10;99.90;;;;;;4988874;28;20545;-44
2022/03/07 06:21:29;;;;;;;35.77;7.30;;;-0.20;99.90;;;;;;4994520;28;20231;-44
2022/03/07 06:23:58;;;;;;;33.47;6.90;;;-0.20;99.90;;;;;;4995405;28;20210;-45
2022/03/07 06:26:25;;;;;;;80.57;8.73;;;-0.10;99.90;;;;;;5011347;28;20234;-43
2022/03/07 06:28:52;;;;;;;58.83;7.13;;;-0.20;99.90;;;;;;5007382;28;20207;-44
2022/03/07 06:31:19;;;;;;;48.73;7.60;;;-0.20;99.90;;;;;;4992949;28;20242;-45
2022/03/07 06:33:46;;;;;;;23.73;7.07;;;-0.40;99.90;;;;;;4994753;28;20229;-44
2022/03/07 06:36:13;;;;;;;58.53;8.13;;;-0.30;99.90;;;;;;5012727;28;20324;-45
2022/03/07 06:38:40;;;;;;;37.37;8.80;;;-0.30;99.90;;;;;;4987606;28;20250;-44
2022/03/07 06:41:11;;;;;;;24.93;7.87;;;-0.30;99.90;;;;;;5014362;28;20214;-44
2022/03/07 06:43:39;;;;;;;37.03;8.30;;;0.00;99.90;;;;;;5002507;28;20286;-44
2022/03/07 06:46:06;;;;;;;48.23;8.53;;;-0.20;99.90;;;;;;5012146;28;20201;-45
2022/03/07 06:48:33;;;;;;;32.37;7.87;;;-0.20;99.90;;;;;;4983446;28;20205;-43
2022/03/07 06:51:00;;;;;;;39.37;9.23;;;-0.10;99.90;;;;;;5022584;28;20212;-45
2022/03/07 06:53:27;;;;;;;35.00;7.73;;;-0.20;99.90;;;;;;5000435;28;20575;-45
2022/03/07 06:55:53;;;;;;;15.50;7.43;;;-0.30;99.90;;;;;;5000820;28;21423;-44
2022/03/07 06:58:22;;;;;;;30.57;7.03;;;-0.30;99.90;;;;;;5004484;28;20282;-45
2022/03/07 07:00:48;;;;;;;25.13;7.10;;;-0.40;99.90;;;;;;5009000;28;20564;-44
2022/03/07 07:03:15;;;;;;;29.43;6.13;;;-0.50;99.90;;;;;;4986324;28;20236;-46
2022/03/07 07:05:42;;;;;;;20.53;7.27;;;-0.50;99.90;;;;;;4995867;28;20660;-45
2022/03/07 07:08:09;;;;;;;50.87;7.10;;;-0.60;99.90;;;;;;5011902;28;20266;-46
2022/03/07 07:10:36;;;;;;;47.80;7.27;;;-0.60;99.90;;;;;;4996956;28;20359;-45
2022/03/07 07:13:03;;;;;;;31.97;7.70;;;-0.60;99.90;;;;;;5011457;28;20231;-45
2022/03/07 07:15:31;;;;;;;48.93;7.90;;;-0.50;99.90;;;;;;5001616;28;20225;-45
2022/03/07 07:17:58;;;;;;;43.20;7.97;;;-0.60;99.90;;;;;;5006887;28;20240;-44
2022/03/07 07:20:25;;;;;;;40.13;10.97;;;-0.50;99.90;;;;;;4992875;28;20302;-44
2022/03/07 07:22:51;;;;;;;48.97;8.73;;;-0.60;99.90;;;;;;5017007;28;20225;-43
2022/03/07 07:25:18;;;;;;;41.97;9.03;;;-0.60;99.90;;;;;;4996703;28;20298;-45
2022/03/07 07:27:45;;;;;;;25.97;8.03;;;-0.60;99.90;;;;;;5007829;28;20405;-45
2022/03/07 07:30:13;;;;;;;79.90;7.67;;;-0.60;99.90;;;;;;5006451;28;20461;-45
2022/03/07 07:32:42;;;;;;;51.37;8.07;;;-0.60;99.90;;;;;;5004809;28;20494;-44
2022/03/07 07:35:10;;;;;;;37.10;6.77;;;-0.70;99.90;;;;;;5010628;28;20230;-45
2022/03/07 07:37:37;;;;;;;33.93;6.90;;;-0.60;99.90;;;;;;5018032;28;20226;-44
2022/03/07 07:40:07;;;;;;;34.20;7.37;;;-0.60;99.90;;;;;;5009426;28;20235;-44
2022/03/07 07:42:34;;;;;;;90.47;7.27;;;-0.60;99.90;;;;;;5003170;28;20252;-45
2022/03/07 07:45:01;;;;;;;89.83;8.77;;;-0.60;99.90;;;;;;5009356;28;20220;-45
2022/03/07 07:47:28;;;;;;;42.63;6.43;;;-0.40;99.90;;;;;;5006036;28;20404;-44
2022/03/07 07:49:56;;;;;;;8.33;5.53;;;-0.70;99.90;;;;;;5013786;28;20213;-45
2022/03/07 07:52:23;;;;;;;24.80;5.93;;;-0.50;99.90;;;;;;4999642;28;20597;-49
2022/03/07 07:54:49;;;;;;;25.60;6.57;;;-0.50;99.90;;;;;;5000683;28;20236;-46
2022/03/07 07:57:16;;;;;;;20.47;5.90;;;-0.40;99.90;;;;;;5007693;28;20452;-48
2022/03/07 07:59:43;;;;;;;37.20;7.13;;;-0.40;99.90;;;;;;4998303;28;20251;-46
2022/03/07 08:02:10;;;;;;;20.23;6.10;;;-0.40;99.90;;;;;;5012872;28;20229;-49
2022/03/07 08:04:37;;;;;;;7.33;5.60;;;-0.40;99.90;;;;;;5000340;28;20207;-44
2022/03/07 08:07:05;;;;;;;12.77;5.63;;;-0.20;99.90;;;;;;5007506;28;20276;-44
2022/03/07 08:09:34;;;;;;;15.73;5.40;;;-0.20;99.90;;;;;;4997678;28;22566;-45
2022/03/07 08:12:01;;;;;;;33.97;6.03;;;-0.30;99.90;;;;;;5001584;28;20731;-46
2022/03/07 08:14:28;;;;;;;37.43;6.50;;;-0.30;99.90;;;;;;5010035;28;20202;-45
2022/03/07 08:16:55;;;;;;;34.47;6.47;;;-0.20;99.90;;;;;;5015364;28;20212;-44
2022/03/07 08:19:22;;;;;;;19.87;6.13;;;-0.20;99.90;;;;;;5004857;28;20206;-46
2022/03/07 08:21:49;;;;;;;27.83;5.90;;;-0.20;99.90;;;;;;5003150;28;20707;-44
2022/03/07 08:24:17;;;;;;;14.73;5.37;;;-0.20;99.90;;;;;;4986860;28;20209;-47
2022/03/07 08:26:44;;;;;;;7.73;5.83;;;-0.10;99.90;;;;;;4998298;28;20316;-46
2022/03/07 08:29:11;;;;;;;23.40;7.27;;;0.10;99.90;;;;;;5016637;28;20194;-48
2022/03/07 08:31:38;;;;;;;20.33;6.20;;;0.00;99.90;;;;;;5008142;28;20474;-45
2022/03/07 08:34:05;;;;;;;14.70;8.30;;;-0.10;99.90;;;;;;5019473;28;20391;-45
2022/03/07 08:36:32;;;;;;;22.40;9.33;;;0.10;99.90;;;;;;5017158;28;20248;-44
2022/03/07 08:38:59;;;;;;;24.63;9.70;;;0.10;99.90;;;;;;5012962;28;20242;-44
2022/03/07 08:41:28;;;;;;;29.23;11.37;;;0.10;99.90;;;;;;4992822;28;26624;-42
2022/03/07 08:43:55;;;;;;;31.50;9.73;;;0.10;99.90;;;;;;5022164;28;20206;-44
2022/03/07 08:46:22;;;;;;;33.60;11.17;;;0.20;99.90;;;;;;5016728;28;20198;-49
2022/03/07 08:48:49;;;;;;;28.73;11.83;;;0.50;99.90;;;;;;5016005;28;20297;-45
2022/03/07 08:51:16;;;;;;;28.87;13.53;;;0.30;99.90;;;;;;5014938;28;20269;-44
2022/03/07 08:53:43;;;;;;;31.80;16.33;;;0.30;99.90;;;;;;5006068;28;20206;-45
2022/03/07 08:56:10;;;;;;;38.67;17.73;;;0.40;99.90;;;;;;5005325;28;20304;-43
2022/03/07 08:58:38;;;;;;;24.77;15.30;;;0.60;99.90;;;;;;5006002;28;20253;-45
2022/03/07 09:01:05;;;;;;;21.77;11.20;;;0.60;99.90;;;;;;5016342;28;20207;-45
2022/03/07 09:03:32;;;;;;;12.80;9.73;;;0.70;99.90;;;;;;5016532;28;20221;-45
2022/03/07 09:05:59;;;;;;;11.27;8.57;;;0.80;99.90;;;;;;5015699;28;20202;-45
2022/03/07 09:08:26;;;;;;;22.13;8.33;;;0.80;99.90;;;;;;5008773;28;20341;-45
2022/03/07 09:10:53;;;;;;;14.20;8.97;;;0.90;99.90;;;;;;5010871;28;20212;-45
2022/03/07 09:13:20;;;;;;;11.07;8.17;;;1.00;99.90;;;;;;5003324;28;20250;-44
2022/03/07 09:15:49;;;;;;;11.73;8.60;;;1.00;99.90;;;;;;5017027;28;20421;-45
2022/03/07 09:18:15;;;;;;;12.30;9.00;;;1.00;99.90;;;;;;5017336;28;20238;-48
2022/03/07 09:20:42;;;;;;;11.50;8.00;;;1.10;99.90;;;;;;5018794;28;20805;-45
2022/03/07 09:23:09;;;;;;;11.63;8.30;;;1.20;99.90;;;;;;5018378;28;20333;-48
2022/03/07 09:25:36;;;;;;;10.33;7.90;;;1.30;99.90;;;;;;4998119;28;20513;-43
2022/03/07 09:28:05;;;;;;;10.40;8.43;;;1.40;99.90;;;;;;5020550;28;20538;-46
2022/03/07 09:30:32;;;;;;;12.33;7.93;;;1.40;99.90;;;;;;5002735;28;20236;-45
2022/03/07 09:33:03;;;;;;;10.47;7.53;;;1.50;99.90;;;;;;5019372;28;20236;-45
2022/03/07 09:35:31;;;;;;;9.23;7.47;;;1.50;99.90;;;;;;5020012;28;20230;-45
2022/03/07 09:37:59;;;;;;;11.33;7.50;;;1.50;99.90;;;;;;5020760;28;20279;-45
2022/03/07 09:40:26;;;;;;;10.07;7.60;;;1.60;99.90;;;;;;5006430;28;20492;-46
2022/03/07 09:42:53;;;;;;;27.17;16.97;;;1.60;99.90;;;;;;5016018;28;20272;-45
2022/03/07 09:45:20;;;;;;;14.53;10.00;;;1.60;99.90;;;;;;4999465;28;20218;-45
2022/03/07 09:47:49;;;;;;;10.50;8.03;;;1.70;99.90;;;;;;5018163;28;20317;-46
2022/03/07 09:50:17;;;;;;;11.03;7.30;;;1.80;99.90;;;;;;5017543;28;20478;-45
2022/03/07 09:52:45;;;;;;;10.00;7.23;;;1.90;99.90;;;;;;5021604;28;20293;-51
2022/03/07 09:55:14;;;;;;;9.90;7.40;;;1.90;99.90;;;;;;5007253;28;20221;-49
2022/03/07 09:57:41;;;;;;;13.67;8.23;;;2.10;99.90;;;;;;5010463;28;20229;-44
2022/03/07 10:00:09;;;;;;;9.50;7.23;;;2.10;99.90;;;;;;5018727;28;20533;-46
2022/03/07 10:02:36;;;;;;;11.10;8.33;;;2.20;99.90;;;;;;5008277;28;20288;-45
2022/03/07 10:05:04;;;;;;;14.30;8.10;;;2.20;99.90;;;;;;5019889;28;20491;-44
2022/03/07 10:07:43;;;;;;;10.67;7.33;;;2.20;99.90;;;;;;5006602;28;21103;-42
2022/03/07 10:10:11;;;;;;;10.10;7.53;;;2.30;99.90;;;;;;5013950;28;20220;-49
2022/03/07 10:12:46;;;;;;;10.83;8.03;;;2.40;99.90;;;;;;5009108;28;20433;-47
2022/03/07 10:15:14;;;;;;;16.60;8.10;;;2.50;99.90;;;;;;5004640;28;20299;-45
2022/03/07 10:17:46;;;;;;;10.80;7.93;;;2.60;99.90;;;;;;4994929;28;20207;-46
2022/03/07 10:20:13;;;;;;;11.03;7.53;;;2.60;99.90;;;;;;5018550;28;20243;-45
2022/03/07 10:22:47;;;;;;;9.73;7.50;;;2.60;99.90;;;;;;5014794;28;20239;-49
2022/03/07 10:25:15;;;;;;;10.33;7.97;;;2.60;99.90;;;;;;5009787;28;20592;-44
2022/03/07 10:27:44;;;;;;;11.53;7.13;;;2.70;99.90;;;;;;5016339;28;20217;-49
2022/03/07 10:30:13;;;;;;;11.37;7.53;;;2.80;99.90;;;;;;5023874;28;20208;-44
2022/03/07 10:32:40;;;;;;;8.60;7.10;;;2.80;99.90;;;;;;4986913;28;20429;-44
2022/03/07 10:35:08;;;;;;;10.27;7.27;;;2.80;99.90;;;;;;5023605;28;20234;-49
2022/03/07 10:37:37;;;;;;;9.77;7.70;;;2.80;99.90;;;;;;5000924;28;20226;-45
2022/03/07 10:40:19;;;;;;;10.53;7.67;;;2.80;99.90;;;;;;5026160;28;20243;-44
2022/03/07 10:42:47;;;;;;;12.47;7.50;;;2.90;99.90;;;;;;5019756;28;20215;-45
2022/03/07 10:45:15;;;;;;;7.93;6.30;;;3.00;99.90;;;;;;5011487;28;20222;-46
2022/03/07 10:47:42;;;;;;;9.00;6.70;;;2.90;99.90;;;;;;5003535;28;20431;-45
2022/03/07 10:50:10;;;;;;;9.37;6.77;;;3.00;99.90;;;;;;5026198;28;20215;-46
2022/03/07 10:52:38;;;;;;;10.67;6.43;;;3.00;99.90;;;;;;5010609;28;20838;-45
2022/03/07 10:55:09;;;;;;;8.47;6.47;;;3.00;99.90;;;;;;5014513;28;20255;-44
2022/03/07 10:57:38;;;;;;;8.13;6.43;;;3.10;99.90;;;;;;5018838;28;20293;-45
2022/03/07 11:00:08;;;;;;;10.40;6.13;;;3.20;99.90;;;;;;5015587;28;20213;-45
2022/03/07 11:02:42;;;;;;;14.40;6.20;;;3.20;99.90;;;;;;5002697;28;20228;-45
2022/03/07 11:05:10;;;;;;;8.40;6.00;;;3.10;99.90;;;;;;5021797;28;20710;-45
2022/03/07 11:07:42;;;;;;;7.60;5.20;;;3.10;99.90;;;;;;5011871;28;20233;-45
2022/03/07 11:10:12;;;;;;;7.47;4.70;;;3.20;99.90;;;;;;5026523;28;20578;-46
2022/03/07 11:12:40;;;;;;;6.77;5.00;;;3.20;99.90;;;;;;5022221;28;20307;-45
2022/03/07 11:15:09;;;;;;;6.73;5.03;;;3.20;99.90;;;;;;5014121;28;20292;-44
2022/03/07 11:17:40;;;;;;;7.33;5.80;;;3.30;99.90;;;;;;5006426;28;20229;-45
2022/03/07 11:20:08;;;;;;;5.67;4.53;;;3.50;99.90;;;;;;5023919;28;20400;-49
2022/03/07 11:22:36;;;;;;;6.87;5.10;;;3.60;99.90;;;;;;5002886;28;20360;-44
2022/03/07 11:25:05;;;;;;;4.87;4.37;;;3.70;99.90;;;;;;5010745;28;20281;-45
2022/03/07 11:27:34;;;;;;;5.77;4.37;;;3.70;99.90;;;;;;5014685;28;20293;-44
2022/03/07 11:30:01;;;;;;;6.87;5.07;;;3.80;99.90;;;;;;5021161;28;21222;-45
2022/03/07 11:32:39;;;;;;;5.43;4.30;;;4.00;99.90;;;;;;4989120;28;20252;-45
2022/03/07 11:35:06;;;;;;;11.63;4.67;;;4.00;99.90;;;;;;5024515;28;20196;-44
2022/03/07 11:37:34;;;;;;;6.47;3.80;;;4.00;99.90;;;;;;5017936;28;20269;-47
2022/03/07 11:40:01;;;;;;;7.43;4.17;;;4.10;99.90;;;;;;5013263;28;20210;-46
2022/03/07 11:42:37;;;;;;;4.50;3.77;;;4.20;99.90;;;;;;5019369;28;20331;-47
2022/03/07 11:45:07;;;;;;;7.07;4.03;;;4.20;99.90;;;;;;5022607;28;20212;-44
2022/03/07 11:47:37;;;;;;;5.13;4.03;;;4.40;99.90;;;;;;4993187;28;21001;-45
2022/03/07 11:50:05;;;;;;;4.50;3.77;;;4.40;99.90;;;;;;5013970;28;20282;-45
2022/03/07 11:52:32;;;;;;;6.00;4.33;;;4.40;99.90;;;;;;5013921;28;20305;-46
2022/03/07 11:55:00;;;;;;;5.73;4.33;;;4.40;99.90;;;;;;5016813;28;20211;-43
2022/03/07 11:57:37;;;;;;;5.13;4.23;;;4.40;99.90;;;;;;5021640;28;20246;-49
2022/03/07 12:00:32;;;;;;;5.53;3.93;;;4.60;99.90;;;;;;5020760;28;20240;-45
2022/03/07 12:03:09;;;;;;;4.47;3.90;;;4.60;99.90;;;;;;4994937;28;20236;-43
2022/03/07 12:05:36;;;;;;;5.37;4.87;;;4.60;99.90;;;;;;5008847;28;20229;-44
2022/03/07 12:08:11;;;;;;;4.43;3.80;;;4.60;99.90;;;;;;5024077;28;20234;-45
2022/03/07 12:10:51;;;;;;;4.57;3.80;;;4.60;99.90;;;;;;5011549;28;20210;-47
2022/03/07 12:13:19;;;;;;;4.47;4.00;;;4.80;99.90;;;;;;5019501;28;20392;-49
2022/03/07 12:15:49;;;;;;;5.50;3.90;;;4.80;99.90;;;;;;5013047;28;21246;-46
2022/03/07 12:18:18;;;;;;;6.93;4.13;;;4.90;99.90;;;;;;5002741;28;20209;-44
2022/03/07 12:20:54;;;;;;;5.20;3.90;;;5.00;99.90;;;;;;5014678;28;20288;-45
2022/03/07 12:23:22;;;;;;;4.87;3.60;;;5.20;99.90;;;;;;5022017;28;20226;-46
2022/03/07 12:25:57;;;;;;;5.07;3.47;;;5.20;99.90;;;;;;5009625;28;20305;-46
2022/03/07 12:28:31;;;;;;;4.30;3.30;;;5.10;99.90;;;;;;5008578;28;20466;-47
2022/03/07 12:30:58;;;;;;;3.17;2.87;;;5.30;99.90;;;;;;5013879;28;20213;-46
2022/03/07 12:33:25;;;;;;;4.33;3.33;;;5.30;99.90;;;;;;4990558;28;20230;-45
2022/03/07 12:35:59;;;;;;;6.13;3.37;;;5.30;99.90;;;;;;5005820;28;20206;-45
2022/03/07 12:38:26;;;;;;;4.80;3.00;;;5.30;99.90;;;;;;5018643;28;20201;-46
2022/03/07 12:40:55;;;;;;;4.03;3.03;;;5.30;99.90;;;;;;5015069;28;23326;-45
2022/03/07 12:43:22;;;;;;;2.97;2.73;;;5.40;99.90;;;;;;5011664;28;20747;-45